Time;durP1;ratioP1;P1;durP2;ratioP2;P2;SDS_P1;SDS_P2;PMS_P1;PMS_P2;Temp;Humidity;BMP_temperature;BMP_pressure;BME280_temperature;BME280_humidity;BME280_pressure;Samples;Min_cycle;Max_cycle;Signal;HPM_P1;HPM_P2
2023/11/24 00:06:32;;;;;;;6.80;2.40;;;;;;;7.84;90.96;97720.92;672685;1271;139327;-81
2023/11/24 00:22:08;;;;;;;5.00;2.40;;;;;;;7.93;90.16;97757.11;674751;1260;139857;-82
2023/11/24 00:37:45;;;;;;;9.10;3.10;;;;;;;7.39;89.33;97742.66;678622;1263;139287;-83
2023/11/24 00:53:22;;;;;;;9.90;3.30;;;;;;;7.10;89.38;97734.13;675260;1261;139245;-82
2023/11/24 01:09:00;;;;;;;7.30;2.70;;;;;;;6.99;90.59;97771.99;674465;1257;138936;-83
2023/11/24 01:24:37;;;;;;;12.70;3.00;;;;;;;6.88;89.82;97770.14;674360;1260;138268;-82
2023/11/24 01:40:17;;;;;;;15.30;4.40;;;;;;;6.50;90.34;97750.76;675201;1261;138574;-83
2023/11/24 01:55:55;;;;;;;9.30;1.90;;;;;;;6.24;91.20;97728.65;674375;1262;138651;-83
2023/11/24 02:11:32;;;;;;;;;;;;;;;6.47;90.12;97726.10;672962;1271;139557;-82
2023/11/24 02:27:09;;;;;;;9.40;2.70;;;;;;;6.61;89.30;97722.81;673703;1260;126098;-84
2023/11/24 02:42:46;;;;;;;9.60;2.00;;;;;;;6.65;89.56;97721.63;675709;1263;139060;-82
2023/11/24 02:58:23;;;;;;;7.30;2.40;;;;;;;6.76;89.13;97732.08;674515;1256;138901;-81
2023/11/24 03:14:00;;;;;;;3.90;1.70;;;;;;;6.49;89.75;97731.19;672788;1257;139178;-81
2023/11/24 03:29:37;;;;;;;3.40;1.40;;;;;;;6.32;88.93;97754.65;673169;1260;139190;-82
2023/11/24 03:45:15;;;;;;;;;;;;;;;6.23;88.29;97755.26;673446;1257;138922;-81
2023/11/24 04:00:52;;;;;;;12.00;2.30;;;;;;;6.27;87.11;97756.89;673052;1263;126036;-83
2023/11/24 04:16:29;;;;;;;9.20;1.90;;;;;;;6.10;87.67;97754.44;671446;1261;138686;-82
2023/11/24 04:32:06;;;;;;;4.00;1.50;;;;;;;6.25;88.29;97753.29;675356;1263;138394;-83
2023/11/24 04:47:44;;;;;;;9.40;2.20;;;;;;;6.13;87.98;97738.85;676463;1272;138961;-84
2023/11/24 05:03:21;;;;;;;;;;;;;;;6.17;87.73;97731.45;677112;1273;138746;-84
2023/11/24 05:18:59;;;;;;;9.30;2.20;;;;;;;5.80;88.70;97722.05;671500;1261;10142277;-82
2023/11/24 05:34:35;;;;;;;8.90;3.50;;;;;;;5.84;90.48;97732.38;675971;1261;138531;-84
2023/11/24 05:50:18;;;;;;;20.90;8.40;;;;;;;6.26;87.88;97742.66;675809;1263;138635;-83
2023/11/24 06:05:55;;;;;;;74.60;17.00;;;;;;;6.10;87.45;97749.80;675823;1263;138406;-83
2023/11/24 06:21:33;;;;;;;34.40;12.50;;;;;;;5.89;87.81;97752.90;673090;1261;139394;-82
2023/11/24 06:37:10;;;;;;;;;;;;;;;5.85;87.48;97773.05;674848;1262;138528;-82
2023/11/24 06:52:47;;;;;;;36.60;11.90;;;;;;;5.76;87.40;97782.70;672154;1262;124530;-83
2023/11/24 07:08:24;;;;;;;23.80;7.70;;;;;;;5.77;88.36;97778.80;672936;1263;138598;-83
2023/11/24 07:24:01;;;;;;;31.30;8.40;;;;;;;5.84;87.98;97781.45;673020;1263;137867;-82
2023/11/24 07:39:40;;;;;;;;;;;;;;;5.87;88.74;97779.27;672512;1262;138749;-82
2023/11/24 07:55:17;;;;;;;17.80;4.60;;;;;;;5.93;88.06;97781.93;676380;1262;124738;-83
2023/11/24 08:10:54;;;;;;;6.90;2.50;;;;;;;5.82;88.27;97774.41;672868;1260;138397;-82
2023/11/24 08:26:31;;;;;;;4.30;1.90;;;;;;;6.30;87.09;97767.48;673392;1259;138807;-83
2023/11/24 08:42:09;;;;;;;6.60;1.50;;;;;;;6.66;85.77;97768.77;675173;1262;138073;-85
2023/11/24 08:57:46;;;;;;;4.60;2.40;;;;;;;6.95;84.60;97786.02;674414;1263;138385;-84
2023/11/24 09:13:23;;;;;;;15.40;7.40;;;;;;;7.91;83.60;97791.64;672584;1263;138157;-81
2023/11/24 09:29:00;;;;;;;13.50;3.70;;;;;;;9.34;79.38;97794.55;673798;1268;138779;-82
2023/11/24 09:44:40;;;;;;;12.00;3.00;;;;;;;9.06;76.69;97797.53;673245;1263;138951;-81
2023/11/24 10:00:19;;;;;;;11.00;5.40;;;;;;;7.36;75.60;97790.77;676643;1263;137592;-81
2023/11/24 10:15:58;;;;;;;16.80;6.50;;;;;;;6.99;78.71;97788.57;675750;1263;138844;-82
2023/11/24 10:31:36;;;;;;;6.80;4.50;;;;;;;6.20;79.64;97799.50;677395;1271;138427;-84
2023/11/24 10:47:14;;;;;;;37.80;18.70;;;;;;;4.62;82.51;97799.60;673848;1262;138039;-82
2023/11/24 11:02:52;;;;;;;86.10;32.10;;;;;;;3.93;87.32;97786.05;674469;1262;139401;-82
2023/11/24 11:18:33;;;;;;;58.60;21.70;;;;;;;3.85;89.39;97771.63;675064;1262;139254;-84
2023/11/24 11:34:17;;;;;;;25.40;9.30;;;;;;;4.41;90.00;97773.05;675006;1271;138766;-82
2023/11/24 11:49:56;;;;;;;20.20;8.40;;;;;;;5.18;91.40;97772.77;674084;1273;139000;-81
2023/11/24 12:05:32;;;;;;;10.70;5.40;;;;;;;5.02;90.55;97789.42;672220;1259;139151;-83
2023/11/24 12:21:10;;;;;;;14.50;6.40;;;;;;;4.70;91.55;97793.95;675322;1277;138562;-85
2023/11/24 12:36:47;;;;;;;;;;;;;;;4.90;92.34;97795.05;675854;1263;139055;-84
2023/11/24 12:52:27;;;;;;;20.00;11.70;;;;;;;4.91;92.15;97792.33;674559;1263;124557;-82
2023/11/24 13:08:04;;;;;;;40.80;18.90;;;;;;;5.11;90.65;97791.88;675930;1260;139816;-85
2023/11/24 13:23:43;;;;;;;25.70;11.10;;;;;;;5.53;88.82;97789.44;675700;1262;139312;-84
2023/11/24 13:39:24;;;;;;;16.10;7.60;;;;;;;5.45;88.65;97784.64;676439;1263;139150;-88
2023/11/24 13:55:01;;;;;;;24.70;10.60;;;;;;;5.24;87.16;97784.77;675956;1264;138696;-85
2023/11/24 14:10:38;;;;;;;10.90;4.60;;;;;;;4.95;86.78;97799.94;677984;1261;139305;-85
2023/11/24 14:26:15;;;;;;;13.10;5.90;;;;;;;4.63;88.78;97822.20;676793;1264;139631;-87
2023/11/24 14:41:55;;;;;;;17.50;5.70;;;;;;;4.35;90.52;97818.44;677468;1260;139324;-83
2023/11/24 14:57:32;;;;;;;12.90;5.00;;;;;;;4.15;91.19;97812.71;676671;1261;139300;-85
2023/11/24 15:13:10;;;;;;;16.00;5.50;;;;;;;3.95;91.57;97818.68;679593;1263;139003;-85
2023/11/24 15:28:47;;;;;;;15.80;6.60;;;;;;;3.68;91.44;97826.32;675976;1263;139115;-84
2023/11/24 15:44:26;;;;;;;36.50;12.80;;;;;;;3.27;92.69;97822.59;674653;1262;138860;-83
2023/11/24 16:00:10;;;;;;;19.00;9.40;;;;;;;3.18;93.44;97823.53;672142;1262;139066;-83
2023/11/24 16:15:47;;;;;;;107.90;47.10;;;;;;;3.25;94.92;97823.59;673816;1260;139312;-83
2023/11/24 16:31:24;;;;;;;37.60;14.10;;;;;;;3.34;96.12;97825.86;674323;1260;139183;-83
2023/11/24 16:47:05;;;;;;;142.40;59.90;;;;;;;3.19;97.68;97824.31;673694;1262;138585;-83
2023/11/24 17:02:42;;;;;;;95.60;37.10;;;;;;;3.20;97.69;97807.15;674707;1259;139061;-81
2023/11/24 17:18:26;;;;;;;120.30;46.70;;;;;;;3.21;97.40;97795.26;670666;1262;10137285;-82
2023/11/24 17:34:03;;;;;;;16.00;10.30;;;;;;;2.99;97.98;97774.98;679656;1263;140987;-80
2023/11/24 17:49:40;;;;;;;167.70;60.30;;;;;;;2.79;99.30;97775.12;676947;1259;139755;-79
2023/11/24 18:05:17;;;;;;;189.60;64.10;;;;;;;2.92;98.54;97769.90;677199;1258;140075;-80
2023/11/24 18:20:48;;;;;;;159.10;65.30;;;;;;;3.05;99.13;97768.39;681901;1263;139402;-80
2023/11/24 18:36:24;;;;;;;47.30;21.70;;;;;;;3.02;99.72;97764.10;679099;1261;139629;-80
2023/11/24 18:52:01;;;;;;;66.30;26.80;;;;;;;2.91;99.93;97766.10;679547;1273;139528;-81
2023/11/24 19:07:38;;;;;;;110.20;48.90;;;;;;;2.84;100.00;97774.61;675791;1261;139064;-82
2023/11/24 19:23:15;;;;;;;33.30;15.40;;;;;;;2.74;100.00;97775.39;680646;1263;139170;-82
2023/11/24 19:38:52;;;;;;;27.10;14.20;;;;;;;2.88;100.00;97755.27;678848;1262;138854;-82
2023/11/24 19:54:30;;;;;;;21.40;10.60;;;;;;;3.12;100.00;97750.35;678501;1262;140325;-82
2023/11/24 20:10:07;;;;;;;117.50;47.70;;;;;;;3.13;100.00;97746.20;680847;1259;139338;-82
2023/11/24 20:25:44;;;;;;;37.80;16.30;;;;;;;3.30;100.00;97750.84;680070;1264;139753;-83
2023/11/24 20:41:21;;;;;;;38.60;15.80;;;;;;;3.35;99.86;97748.45;676386;1263;140386;-83
2023/11/24 20:56:58;;;;;;;36.20;15.90;;;;;;;3.23;100.00;97749.16;675770;1275;139764;-82
2023/11/24 21:12:41;;;;;;;46.50;21.70;;;;;;;3.04;100.00;97756.55;673509;1263;138646;-84
2023/11/24 21:28:19;;;;;;;27.30;15.90;;;;;;;2.96;100.00;97758.28;675155;1260;139448;-84
2023/11/24 21:43:56;;;;;;;33.30;16.20;;;;;;;3.13;100.00;97767.25;678074;1263;139038;-83
2023/11/24 21:59:35;;;;;;;26.40;12.70;;;;;;;3.21;100.00;97769.45;679342;1259;139317;-84
2023/11/24 22:15:15;;;;;;;45.50;18.50;;;;;;;3.14;100.00;97774.72;674778;1262;139217;-83
2023/11/24 22:30:56;;;;;;;20.80;11.00;;;;;;;3.21;100.00;97782.19;676231;1262;139379;-82
2023/11/24 22:46:34;;;;;;;14.00;8.20;;;;;;;3.27;100.00;97790.77;674523;1263;140394;-83
2023/11/24 23:02:11;;;;;;;24.60;10.30;;;;;;;3.28;100.00;97797.22;671790;1261;139482;-83
2023/11/24 23:17:51;;;;;;;24.40;11.60;;;;;;;3.25;100.00;97803.52;672209;1263;139504;-81
2023/11/24 23:33:27;;;;;;;29.00;11.50;;;;;;;3.26;100.00;97803.32;671860;1262;139294;-82
2023/11/24 23:49:04;;;;;;;43.00;15.60;;;;;;;3.22;100.00;97816.12;673566;1262;140023;-82
